Time;durP1;ratioP1;P1;durP2;ratioP2;P2;SDS_P1;SDS_P2;PMS_P1;PMS_P2;Temp;Humidity;BMP_temperature;BMP_pressure;BME280_temperature;BME280_humidity;BME280_pressure;Samples;Min_cycle;Max_cycle;Signal;HPM_P1;HPM_P2
2022/06/21 00:02:25;;;;;;;12.32;5.57;;;;;;;12.77;73.21;101644.31;4988342;28;20038;-76
2022/06/21 00:04:51;;;;;;;12.75;6.00;;;;;;;12.78;73.24;101640.72;4992134;28;20054;-77
2022/06/21 00:07:23;;;;;;;10.35;5.43;;;;;;;12.75;73.40;101647.09;4986707;28;20033;-77
2022/06/21 00:09:49;;;;;;;12.75;5.80;;;;;;;12.76;73.26;101648.81;4981559;28;20033;-77
2022/06/21 00:12:14;;;;;;;13.25;6.00;;;;;;;12.76;73.01;101648.81;4992940;28;20038;-77
2022/06/21 00:14:40;;;;;;;11.50;5.85;;;;;;;12.74;73.58;101650.75;4994287;28;20048;-77
2022/06/21 00:17:10;;;;;;;11.88;5.78;;;;;;;12.68;73.16;101645.84;4985662;28;20089;-77
2022/06/21 00:19:37;;;;;;;11.20;6.28;;;;;;;12.68;72.72;101653.00;4983581;28;20036;-77
2022/06/21 00:22:05;;;;;;;14.20;6.03;;;;;;;12.70;73.25;101657.25;4976481;28;20426;-77
2022/06/21 00:24:30;;;;;;;10.68;6.50;;;;;;;12.64;73.27;101654.19;4961322;28;20154;-77
2022/06/21 00:26:56;;;;;;;12.10;6.38;;;;;;;12.58;73.08;101653.66;4988764;28;20031;-77
2022/06/21 00:29:21;;;;;;;13.98;6.47;;;;;;;12.56;73.39;101650.25;4992237;28;20026;-76
2022/06/21 00:31:49;;;;;;;12.68;6.35;;;;;;;12.50;73.63;101644.53;4993017;28;20041;-76
2022/06/21 00:34:18;;;;;;;13.73;6.20;;;;;;;12.33;73.72;101609.28;4974975;28;20073;-77
2022/06/21 00:36:44;;;;;;;11.77;6.30;;;;;;;12.45;74.68;101641.34;4986595;28;20475;-77
2022/06/21 00:39:12;;;;;;;12.30;6.25;;;;;;;12.40;74.77;101641.66;4978771;28;20031;-77
2022/06/21 00:41:52;;;;;;;11.70;6.03;;;;;;;12.45;73.32;101644.84;4961876;28;20033;-77
2022/06/21 00:44:23;;;;;;;8.48;5.63;;;;;;;12.37;73.89;101639.22;4988437;28;20030;-77
2022/06/21 00:46:54;;;;;;;12.13;6.72;;;;;;;12.34;74.80;101642.09;4989594;28;20038;-77
2022/06/21 00:49:24;;;;;;;13.57;6.63;;;;;;;12.34;74.34;101647.41;4993893;28;20037;-78
2022/06/21 00:51:57;;;;;;;11.57;5.85;;;;;;;12.29;74.87;101642.44;4987354;28;20503;-77
2022/06/21 00:54:35;;;;;;;10.77;6.32;;;;;;;12.29;74.63;101631.78;4988014;28;20449;-77
2022/06/21 00:57:10;;;;;;;13.50;6.50;;;;;;;12.25;74.96;101629.44;4981347;28;20022;-76
2022/06/21 00:59:37;;;;;;;13.52;6.65;;;;;;;12.29;74.73;101636.25;4993846;28;20030;-78
2022/06/21 01:02:06;;;;;;;13.60;5.88;;;;;;;12.21;74.93;101623.50;4993805;28;20101;-79
2022/06/21 01:04:45;;;;;;;15.18;6.45;;;;;;;12.21;74.57;101615.50;5045724;23;20054;-78
2022/06/21 01:07:12;;;;;;;18.77;6.60;;;;;;;12.13;74.66;101604.53;4999844;28;20121;-78
2022/06/21 01:10:02;;;;;;;14.88;6.30;;;;;;;12.09;74.93;101593.25;5003714;28;20025;-78
2022/06/21 01:12:34;;;;;;;12.68;6.05;;;;;;;12.13;74.85;101591.22;5010900;28;20057;-78
2022/06/21 01:15:05;;;;;;;14.70;6.57;;;;;;;12.09;75.66;101595.06;5006006;28;20121;-78
2022/06/21 01:17:31;;;;;;;15.70;6.22;;;;;;;12.10;75.38;101602.09;5012989;28;20080;-79
2022/06/21 01:20:03;;;;;;;9.98;6.07;;;;;;;12.09;75.25;101595.06;5011823;28;20030;-78
2022/06/21 01:22:44;;;;;;;11.68;6.25;;;;;;;12.11;75.14;101599.31;5008811;28;20104;-79
2022/06/21 01:25:16;;;;;;;12.60;5.35;;;;;;;12.04;75.05;101598.06;5007085;28;20525;-79
2022/06/21 01:27:42;;;;;;;10.35;5.80;;;;;;;12.01;75.25;101596.47;5008595;28;20034;-78
2022/06/21 01:30:08;;;;;;;9.55;5.80;;;;;;;12.00;75.57;101599.22;5013287;28;20028;-78
2022/06/21 01:32:35;;;;;;;14.65;5.78;;;;;;;11.97;75.15;101586.13;4994069;28;20075;-79
2022/06/21 01:35:08;;;;;;;9.93;5.50;;;;;;;11.95;75.71;101590.72;5013524;28;20040;-78
2022/06/21 01:37:34;;;;;;;7.28;5.60;;;;;;;11.93;75.79;101590.81;5009304;28;20033;-79
2022/06/21 01:40:25;;;;;;;12.70;5.40;;;;;;;11.96;74.89;101597.75;5006990;28;20030;-78
2022/06/21 01:42:54;;;;;;;11.65;5.50;;;;;;;11.89;75.99;101591.09;5002897;28;20034;-78
2022/06/21 01:45:27;;;;;;;14.38;5.93;;;;;;;11.88;75.58;101600.06;4994738;28;20128;-78
2022/06/21 01:48:01;;;;;;;11.77;6.00;;;;;;;11.86;76.11;101600.19;5004692;28;20034;-78
2022/06/21 01:50:27;;;;;;;10.27;5.22;;;;;;;11.85;76.13;101603.78;5008790;28;20030;-78
2022/06/21 01:52:55;;;;;;;11.05;5.85;;;;;;;11.78;75.97;101597.19;5006730;28;20022;-78
2022/06/21 01:55:32;;;;;;;11.63;5.32;;;;;;;11.79;75.42;101601.53;5005264;28;20462;-79
2022/06/21 01:58:00;;;;;;;11.43;6.03;;;;;;;11.74;76.02;101596.56;5016746;28;20033;-78
2022/06/21 02:00:26;;;;;;;11.35;5.57;;;;;;;11.73;76.65;101597.50;5016175;28;20117;-79
2022/06/21 02:02:57;;;;;;;9.38;5.90;;;;;;;11.71;76.67;101601.22;5016711;28;20057;-78
2022/06/21 02:05:40;;;;;;;9.88;5.25;;;;;;;11.72;76.48;101593.13;5005771;28;20585;-79
2022/06/21 02:08:10;;;;;;;14.48;6.18;;;;;;;11.62;77.00;101595.59;5016554;28;20359;-79
2022/06/21 02:10:39;;;;;;;12.57;6.10;;;;;;;11.61;76.93;101590.38;5016457;28;20491;-79
2022/06/21 02:13:17;;;;;;;12.10;6.15;;;;;;;11.58;76.29;101591.44;5016190;28;20085;-79
2022/06/21 02:15:59;;;;;;;10.55;5.60;;;;;;;11.55;76.82;101590.81;5007515;28;20117;-78
2022/06/21 02:18:29;;;;;;;12.80;6.28;;;;;;;11.50;77.44;101591.09;5013613;28;20034;-79
2022/06/21 02:21:17;;;;;;;13.55;6.07;;;;;;;11.54;77.08;101587.31;5013830;28;20026;-79
2022/06/21 02:23:46;;;;;;;12.65;6.22;;;;;;;11.52;77.12;101589.19;5016779;28;20033;-79
2022/06/21 02:26:12;;;;;;;;;;;;;;;11.64;74.18;101585.69;5011692;28;20026;-79
2022/06/21 02:28:38;;;;;;;11.68;5.97;;;;;;;11.53;76.88;101582.09;5010788;28;19924;-79
2022/06/21 02:31:03;;;;;;;8.82;5.60;;;;;;;11.53;76.46;101571.44;5015964;28;20022;-80
2022/06/21 02:33:33;;;;;;;14.45;6.25;;;;;;;11.48;76.84;101553.97;5016200;28;20053;-80
2022/06/21 02:36:17;;;;;;;11.82;6.72;;;;;;;11.48;76.62;101553.13;5015638;28;20037;-80
2022/06/21 02:38:49;;;;;;;14.70;6.15;;;;;;;11.47;76.99;101557.59;5007841;28;20030;-79
2022/06/21 02:41:20;;;;;;;12.65;6.18;;;;;;;11.40;77.10;101555.47;5011619;28;20046;-79
2022/06/21 02:43:51;;;;;;;9.10;6.00;;;;;;;11.36;76.86;101565.47;4997519;28;20109;-79
2022/06/21 02:46:24;;;;;;;10.70;6.07;;;;;;;11.36;77.16;101575.22;5010201;28;20026;-80
2022/06/21 02:48:58;;;;;;;12.13;5.90;;;;;;;11.30;77.05;101560.56;5015305;28;20069;-79
2022/06/21 02:51:30;;;;;;;11.73;5.88;;;;;;;11.32;76.84;101565.78;5016263;28;20124;-79
2022/06/21 02:54:25;;;;;;;11.75;5.95;;;;;;;11.33;76.68;101562.16;5016677;28;20509;-79
2022/06/21 02:56:59;;;;;;;8.52;5.90;;;;;;;11.30;77.03;101561.41;4991614;28;20066;-79
2022/06/21 02:59:25;;;;;;;11.02;6.45;;;;;;;11.24;77.24;101567.16;5009390;28;20548;-79
2022/06/21 03:01:57;;;;;;;10.82;6.22;;;;;;;11.21;76.96;101571.84;5015142;28;20030;-79
2022/06/21 03:04:36;;;;;;;12.07;6.57;;;;;;;11.21;77.04;101574.50;5015067;28;20052;-79
2022/06/21 03:07:02;;;;;;;;;;;;;;;11.30;74.55;101566.72;5013567;28;20046;-79
2022/06/21 03:09:27;;;;;;;13.38;6.05;;;;;;;11.18;76.64;101564.06;4996712;28;20369;-80
2022/06/21 03:11:58;;;;;;;14.60;6.82;;;;;;;11.13;77.29;101567.03;4993673;28;20065;-80
2022/06/21 03:14:27;;;;;;;12.20;6.65;;;;;;;11.09;77.15;101565.50;5005991;28;20037;-80
2022/06/21 03:16:54;;;;;;;15.13;6.75;;;;;;;11.13;77.28;101568.84;5015358;28;20029;-79
2022/06/21 03:19:27;;;;;;;10.57;6.18;;;;;;;11.06;77.38;101571.91;4998184;28;20034;-79
2022/06/21 03:21:54;;;;;;;11.23;6.53;;;;;;;11.06;77.16;101576.38;5012385;28;20428;-80
2022/06/21 03:24:22;;;;;;;13.85;6.80;;;;;;;11.01;77.42;101575.84;5016030;28;20129;-80
2022/06/21 03:26:59;;;;;;;10.27;6.40;;;;;;;11.02;77.31;101573.03;5015001;28;20474;-80
2022/06/21 03:29:24;;;;;;;10.38;6.75;;;;;;;10.95;77.68;101574.41;4988382;28;20049;-80
2022/06/21 03:31:51;;;;;;;10.10;6.63;;;;;;;10.96;77.40;101572.59;4998182;28;20427;-79
2022/06/21 03:34:20;;;;;;;13.73;7.13;;;;;;;10.89;77.44;101570.38;5015865;28;20060;-79
2022/06/21 03:36:47;;;;;;;12.52;7.30;;;;;;;10.88;77.75;101551.88;5015637;28;20057;-80
2022/06/21 03:39:17;;;;;;;11.75;6.45;;;;;;;10.82;77.75;101549.63;5015344;28;20062;-79
2022/06/21 03:41:44;;;;;;;13.52;7.20;;;;;;;10.81;78.01;101553.22;5002191;28;20026;-79
2022/06/21 03:44:15;;;;;;;14.35;7.10;;;;;;;10.81;77.75;101547.91;5014638;28;20414;-79
2022/06/21 03:47:09;;;;;;;11.20;6.97;;;;;;;10.82;77.65;101545.13;5015289;28;20029;-79
2022/06/21 03:49:48;;;;;;;11.98;7.30;;;;;;;10.84;77.41;101545.91;5003722;28;20032;-79
2022/06/21 03:52:41;;;;;;;;;;;;;;;10.95;75.26;101547.00;4997693;28;20120;-79
2022/06/21 03:55:08;;;;;;;10.45;6.78;;;;;;;10.84;78.02;101540.59;5014965;28;19913;-79
2022/06/21 03:57:36;;;;;;;14.45;7.95;;;;;;;10.83;78.38;101533.56;5008664;28;20036;-79
2022/06/21 04:00:09;;;;;;;11.63;7.55;;;;;;;10.84;78.85;101545.03;5015394;28;20367;-79
2022/06/21 04:02:57;;;;;;;9.93;7.82;;;;;;;10.86;78.94;101557.28;5015066;28;20034;-79
2022/06/21 04:05:34;;;;;;;17.27;8.80;;;;;;;10.85;80.25;101555.56;4997431;28;20081;-79
2022/06/21 04:08:10;;;;;;;13.70;8.32;;;;;;;10.88;79.80;101552.72;5015040;28;20080;-79
2022/06/21 04:11:02;;;;;;;13.32;8.30;;;;;;;10.89;80.69;101550.91;4997233;28;20026;-80
2022/06/21 04:13:39;;;;;;;15.50;9.27;;;;;;;10.95;80.75;101552.31;5003130;28;20053;-79
2022/06/21 04:16:13;;;;;;;15.68;9.10;;;;;;;10.99;80.46;101556.47;5014494;28;20097;-79
2022/06/21 04:18:59;;;;;;;15.35;8.98;;;;;;;11.01;80.58;101542.13;5013003;28;20029;-80
2022/06/21 04:21:37;;;;;;;14.35;8.45;;;;;;;11.05;81.08;101542.75;5014705;28;20556;-79
2022/06/21 04:24:32;;;;;;;15.07;9.77;;;;;;;11.07;81.47;101541.72;4998066;28;20029;-80
2022/06/21 04:27:09;;;;;;;16.50;8.95;;;;;;;11.11;80.39;101542.34;4985357;28;20049;-80
2022/06/21 04:30:28;;;;;;;16.33;9.32;;;;;;;11.18;79.40;101540.13;4997045;28;20022;-80
2022/06/21 04:33:03;;;;;;;16.85;8.95;;;;;;;11.19;81.03;101532.06;4984802;28;20372;-80
2022/06/21 04:35:35;;;;;;;14.02;9.35;;;;;;;11.22;80.89;101531.81;5013687;28;20038;-80
2022/06/21 04:38:11;;;;;;;13.68;8.77;;;;;;;11.26;81.06;101533.31;5014696;28;20072;-80
2022/06/21 04:40:56;;;;;;;14.52;9.38;;;;;;;11.36;80.36;101530.00;5001777;28;20113;-79
2022/06/21 04:43:39;;;;;;;13.60;8.98;;;;;;;11.41;80.76;101528.75;5006824;28;20045;-80
2022/06/21 04:46:24;;;;;;;18.98;9.70;;;;;;;11.52;79.90;101516.53;5003997;28;20026;-79
2022/06/21 04:49:04;;;;;;;15.38;8.40;;;;;;;11.65;80.16;101520.88;5014885;28;20022;-80
2022/06/21 04:51:42;;;;;;;14.68;8.57;;;;;;;11.75;79.85;101514.91;5005959;28;20018;-79
2022/06/21 04:54:16;;;;;;;19.50;8.13;;;;;;;11.89;79.56;101530.75;5013707;28;20026;-80
2022/06/21 04:57:14;;;;;;;13.05;7.75;;;;;;;12.05;78.21;101524.34;5014233;28;20521;-80
2022/06/21 04:59:46;;;;;;;15.15;8.27;;;;;;;12.18;78.30;101512.69;5010580;28;20021;-80
2022/06/21 05:02:23;;;;;;;16.35;8.00;;;;;;;12.29;77.36;101514.59;5000352;28;20069;-80
2022/06/21 05:04:56;;;;;;;12.73;7.45;;;;;;;12.48;76.97;101521.22;5000530;28;20124;-79
2022/06/21 05:07:26;;;;;;;12.85;6.88;;;;;;;12.59;76.64;101519.47;5014799;28;20052;-79
2022/06/21 05:09:55;;;;;;;13.40;7.50;;;;;;;12.73;75.62;101521.09;5013286;28;20033;-79
2022/06/21 05:12:26;;;;;;;16.58;7.18;;;;;;;12.85;75.09;101523.81;5016616;28;20041;-79
2022/06/21 05:14:56;;;;;;;11.80;6.95;;;;;;;13.01;74.93;101519.00;5013940;28;20046;-79
2022/06/21 05:17:22;;;;;;;13.40;6.40;;;;;;;13.11;74.58;101509.34;5013539;28;20033;-80
2022/06/21 05:19:52;;;;;;;11.50;6.15;;;;;;;13.21;73.92;101508.66;5013235;28;20371;-80
2022/06/21 05:22:30;;;;;;;10.32;5.95;;;;;;;13.28;73.54;101504.53;4995786;28;20482;-80
2022/06/21 05:24:57;;;;;;;11.98;5.90;;;;;;;13.35;72.48;101510.25;5002998;28;20556;-79
2022/06/21 05:27:33;;;;;;;16.35;6.25;;;;;;;13.45;72.80;101496.06;5009164;28;20029;-80
2022/06/21 05:30:03;;;;;;;11.38;5.60;;;;;;;13.57;72.14;101507.59;5013097;28;20045;-80
2022/06/21 05:32:38;;;;;;;9.13;5.05;;;;;;;13.73;71.22;101519.75;5013563;28;20034;-80
2022/06/21 05:35:13;;;;;;;11.82;4.88;;;;;;;13.91;70.55;101520.13;5013627;28;20038;-79
2022/06/21 05:38:09;;;;;;;11.07;4.60;;;;;;;14.10;70.20;101528.31;5004526;28;20026;-80
2022/06/21 05:40:38;;;;;;;9.50;4.45;;;;;;;14.29;68.19;101529.50;5000347;28;20458;-80
2022/06/21 05:43:05;;;;;;;8.52;4.22;;;;;;;14.51;68.30;101537.47;5014517;28;20033;-80
2022/06/21 05:45:34;;;;;;;8.13;4.03;;;;;;;14.70;67.13;101504.72;5013574;28;20022;-79
2022/06/21 05:48:03;;;;;;;9.25;4.07;;;;;;;14.95;67.24;101510.69;5013977;28;20049;-79
2022/06/21 05:50:34;;;;;;;6.15;3.10;;;;;;;15.12;65.00;101526.19;4995137;28;20042;-80
2022/06/21 05:53:09;;;;;;;10.60;3.83;;;;;;;15.30;64.63;101541.63;5009160;28;20027;-79
2022/06/21 05:55:40;;;;;;;8.52;3.63;;;;;;;15.44;64.35;101545.81;5011508;28;20376;-79
2022/06/21 05:58:32;;;;;;;6.60;3.42;;;;;;;15.53;64.62;101545.00;5013660;28;20033;-79
2022/06/21 06:01:06;;;;;;;6.38;3.45;;;;;;;15.71;62.82;101540.72;5013689;28;20032;-79
2022/06/21 06:03:46;;;;;;;8.35;3.80;;;;;;;15.92;62.90;101539.88;5013934;28;20109;-80
2022/06/21 06:06:17;;;;;;;8.43;3.83;;;;;;;16.01;61.45;101544.41;5011881;28;20434;-79
2022/06/21 06:08:48;;;;;;;6.80;3.08;;;;;;;16.30;61.46;101543.63;5012828;28;20054;-81
2022/06/21 06:11:21;;;;;;;9.75;3.33;;;;;;;16.51;60.33;101548.88;5010265;28;20065;-80
2022/06/21 06:13:48;;;;;;;6.22;3.08;;;;;;;16.78;59.97;101548.19;5010057;28;20107;-80
2022/06/21 06:16:38;;;;;;;9.52;3.20;;;;;;;17.01;60.29;101551.47;5010638;28;20033;-80
2022/06/21 06:19:10;;;;;;;7.18;3.20;;;;;;;17.13;58.25;101554.84;5007961;28;20100;-79
2022/06/21 06:21:45;;;;;;;5.85;3.00;;;;;;;17.33;57.88;101554.81;5004646;28;20030;-80
2022/06/21 06:24:30;;;;;;;9.48;3.20;;;;;;;17.64;58.70;101562.69;5002709;28;20052;-80
2022/06/21 06:27:00;;;;;;;14.25;3.70;;;;;;;17.80;56.36;101570.09;5003246;28;20035;-80
2022/06/21 06:29:34;;;;;;;16.73;3.30;;;;;;;17.99;56.06;101569.22;5013314;28;20045;-80
2022/06/21 06:32:17;;;;;;;10.00;3.28;;;;;;;18.20;56.19;101567.13;5012616;28;20026;-81
2022/06/21 06:34:46;;;;;;;8.98;2.60;;;;;;;18.34;54.43;101563.09;5003404;28;20060;-80
2022/06/21 06:37:22;;;;;;;9.15;2.70;;;;;;;18.35;54.17;101563.91;5012846;28;20026;-80
2022/06/21 06:39:47;;;;;;;11.77;2.72;;;;;;;18.44;53.12;101558.47;5014679;28;20096;-81
2022/06/21 06:42:22;;;;;;;8.23;2.38;;;;;;;18.75;54.58;101559.94;5010396;28;20027;-80
2022/06/21 06:45:00;;;;;;;4.68;2.35;;;;;;;18.99;53.21;101572.84;5016751;28;20053;-81
2022/06/21 06:47:38;;;;;;;9.38;2.40;;;;;;;19.20;52.35;101570.66;5028241;28;20041;-79
2022/06/21 06:50:25;;;;;;;11.02;2.60;;;;;;;19.42;51.63;101563.91;5027250;28;20030;-79
2022/06/21 06:53:15;;;;;;;7.35;2.55;;;;;;;19.64;52.58;101564.38;5027870;28;20081;-78
2022/06/21 06:55:50;;;;;;;7.90;2.30;;;;;;;19.78;50.76;101560.25;5008067;28;20105;-79
2022/06/21 06:58:28;;;;;;;10.13;3.20;;;;;;;19.87;50.42;101571.94;5029874;28;20402;-81
2022/06/21 07:01:05;;;;;;;8.67;2.80;;;;;;;19.99;50.05;101567.94;5029164;28;20427;-79
2022/06/21 07:03:37;;;;;;;5.95;2.30;;;;;;;20.19;47.66;101560.44;5001364;28;20073;-79
2022/06/21 07:06:20;;;;;;;5.47;2.28;;;;;;;20.33;47.71;101561.66;5022017;28;20046;-82
2022/06/21 07:09:01;;;;;;;5.30;2.63;;;;;;;20.57;48.28;101562.72;5017021;28;20060;-80
2022/06/21 07:11:35;;;;;;;6.97;2.50;;;;;;;20.80;49.05;101561.13;5003553;28;20494;-78
2022/06/21 07:14:01;;;;;;;7.53;2.55;;;;;;;20.87;46.31;101564.00;5015463;28;20030;-79
2022/06/21 07:16:29;;;;;;;11.43;2.88;;;;;;;21.05;45.67;101570.06;5019848;28;20020;-79
2022/06/21 07:18:58;;;;;;;7.03;2.75;;;;;;;21.15;45.15;101567.19;5023403;28;20017;-78
2022/06/21 07:21:27;;;;;;;6.35;2.80;;;;;;;21.15;44.52;101558.22;5007677;28;20037;-79
2022/06/21 07:23:57;;;;;;;8.10;2.70;;;;;;;21.20;45.02;101548.63;5026551;28;20041;-79
2022/06/21 07:26:30;;;;;;;5.47;3.03;;;;;;;21.48;46.34;101542.84;5023007;28;20108;-79
2022/06/21 07:29:02;;;;;;;10.20;3.05;;;;;;;21.66;44.14;101541.81;5025167;28;20030;-80
2022/06/21 07:31:44;;;;;;;7.40;2.60;;;;;;;21.77;44.12;101557.66;5029034;28;20033;-79
2022/06/21 07:34:25;;;;;;;9.23;2.75;;;;;;;21.89;45.13;101561.66;5027740;28;20044;-79
2022/06/21 07:37:23;;;;;;;9.57;2.80;;;;;;;21.98;43.56;101554.34;5025077;28;20041;-78
2022/06/21 07:40:04;;;;;;;9.57;2.97;;;;;;;22.35;43.68;101559.13;5004269;28;20057;-79
2022/06/21 07:42:42;;;;;;;9.13;3.15;;;;;;;22.18;43.46;101557.47;5023740;28;20051;-79
2022/06/21 07:45:12;;;;;;;8.90;3.10;;;;;;;22.30;42.41;101555.25;5024992;28;20030;-80
2022/06/21 07:47:50;;;;;;;7.63;2.83;;;;;;;22.52;42.44;101556.31;5022336;28;20022;-79
2022/06/21 07:50:31;;;;;;;7.55;3.47;;;;;;;22.43;41.46;101554.66;5028669;28;20021;-80
2022/06/21 07:53:02;;;;;;;6.68;2.95;;;;;;;22.60;41.22;101550.84;5029006;28;20165;-79
2022/06/21 07:55:41;;;;;;;6.90;2.70;;;;;;;22.78;40.93;101545.09;5030228;28;20105;-80
2022/06/21 07:58:15;;;;;;;;;;;;;;;23.14;43.55;101535.53;5024436;28;20467;-80
2022/06/21 08:06:42;;;;;;;6.45;2.55;;;;;;;23.51;38.02;101522.97;5016275;28;20100;-80
2022/06/21 08:09:13;;;;;;;7.90;2.80;;;;;;;23.62;39.46;101528.75;5011857;28;20028;-80
2022/06/21 08:11:44;;;;;;;7.75;3.35;;;;;;;23.47;38.66;101527.91;5015252;28;20026;-80
2022/06/21 08:14:12;;;;;;;8.43;3.47;;;;;;;23.37;38.41;101533.59;5021816;28;20025;-81
2022/06/21 08:16:53;;;;;;;9.30;2.80;;;;;;;23.54;40.09;101533.44;5020057;28;20048;-81
2022/06/21 08:20:01;;;;;;;10.73;2.70;;;;;;;23.77;41.11;101531.47;5009384;28;20026;-81
2022/06/21 08:22:31;;;;;;;5.57;2.45;;;;;;;23.35;38.84;101521.25;5009731;28;20073;-82
2022/06/21 08:25:13;;;;;;;9.85;2.95;;;;;;;23.56;38.73;101513.22;5010451;28;20032;-81
2022/06/21 08:28:04;;;;;;;6.45;2.53;;;;;;;23.73;38.50;101507.59;5005861;28;20026;-81
2022/06/21 08:30:51;;;;;;;8.13;2.78;;;;;;;23.75;36.87;101500.16;5014922;28;20367;-80
2022/06/21 08:33:35;;;;;;;6.68;2.33;;;;;;;23.86;39.08;101493.41;5005887;28;20045;-80
2022/06/21 08:36:08;;;;;;;7.60;2.92;;;;;;;23.67;36.33;101494.81;5014778;28;20340;-80
2022/06/21 08:38:56;;;;;;;6.85;2.72;;;;;;;23.85;37.93;101495.28;5007112;28;20029;-80
2022/06/21 08:41:54;;;;;;;7.50;2.92;;;;;;;23.82;37.90;101488.38;5010539;28;20054;-80
2022/06/21 08:44:38;;;;;;;9.07;2.72;;;;;;;23.89;38.82;101468.63;5007031;28;20117;-81
2022/06/21 08:47:18;;;;;;;8.95;2.80;;;;;;;23.92;39.14;101476.38;5007779;28;20029;-80
2022/06/21 08:50:05;;;;;;;8.05;2.72;;;;;;;23.75;39.06;101471.16;5005509;28;20030;-80
2022/06/21 08:52:42;;;;;;;6.88;2.65;;;;;;;23.40;37.67;101457.34;5015450;28;20469;-81
2022/06/21 08:55:09;;;;;;;6.53;3.00;;;;;;;23.12;38.10;101456.31;5026201;28;20640;-80
2022/06/21 08:57:54;;;;;;;8.43;3.00;;;;;;;22.92;39.22;101463.06;5021778;28;20026;-80
2022/06/21 09:00:40;;;;;;;8.40;3.20;;;;;;;22.87;40.14;101461.94;5015326;28;20036;-80
2022/06/21 09:03:24;;;;;;;8.38;3.38;;;;;;;22.77;40.01;101453.25;5018727;28;20068;-80
2022/06/21 09:06:02;;;;;;;8.32;3.08;;;;;;;22.62;39.19;101454.03;5013591;28;20061;-80
2022/06/21 09:08:43;;;;;;;6.13;2.80;;;;;;;22.87;39.19;101453.81;5016758;28;20029;-80
2022/06/21 09:11:27;;;;;;;6.35;2.83;;;;;;;23.23;39.83;101445.84;5020169;28;20470;-80
2022/06/21 09:14:18;;;;;;;10.48;3.30;;;;;;;23.29;38.98;101438.81;5020446;28;20054;-81
2022/06/21 09:16:58;;;;;;;10.52;3.22;;;;;;;23.33;38.43;101434.72;5015566;28;20033;-80
2022/06/21 09:19:40;;;;;;;33.45;5.75;;;;;;;23.54;38.84;101433.13;5010770;28;20026;-80
2022/06/21 09:22:23;;;;;;;6.97;2.55;;;;;;;23.88;38.09;101426.25;5010912;28;20065;-80
2022/06/21 09:25:02;;;;;;;7.15;2.88;;;;;;;24.09;37.19;101422.72;4996713;28;20034;-80
2022/06/21 09:27:31;;;;;;;;;;;;;;;24.51;38.72;101424.56;5012629;28;20041;-80
2022/06/21 09:30:12;;;;;;;8.57;2.80;;;;;;;24.38;37.15;101419.00;4997875;28;19914;-81
2022/06/21 09:33:03;;;;;;;7.45;3.15;;;;;;;24.83;38.34;101411.50;5019330;28;20049;-80
2022/06/21 09:35:39;;;;;;;3.90;2.67;;;;;;;24.91;36.42;101403.19;5011067;28;20026;-80
2022/06/21 09:38:33;;;;;;;8.20;3.08;;;;;;;25.08;35.64;101402.84;5018939;28;20479;-81
2022/06/21 09:41:15;;;;;;;7.18;3.08;;;;;;;25.44;36.42;101416.25;5015763;28;20041;-82
2022/06/21 09:43:46;;;;;;;10.27;3.42;;;;;;;25.28;34.88;101431.03;5013837;28;20037;-81
2022/06/21 09:46:27;;;;;;;7.63;3.40;;;;;;;25.27;35.95;101423.91;5016319;28;20037;-81
2022/06/21 09:49:03;;;;;;;7.20;2.92;;;;;;;25.51;34.72;101423.59;5014935;28;20065;-81
2022/06/21 09:51:55;;;;;;;7.78;2.60;;;;;;;25.77;34.99;101418.25;5014375;28;20026;-81
2022/06/21 09:54:32;;;;;;;6.18;2.75;;;;;;;25.49;34.35;101405.59;4995299;28;20122;-81
2022/06/21 09:56:57;;;;;;;7.40;2.70;;;;;;;25.30;33.56;101409.91;5010205;28;20045;-81
2022/06/21 09:59:35;;;;;;;6.90;2.63;;;;;;;25.14;34.50;101409.38;5013182;28;20113;-81
2022/06/21 10:02:25;;;;;;;5.38;2.53;;;;;;;25.20;34.13;101414.03;5018334;28;20034;-82
2022/06/21 10:05:32;;;;;;;6.03;2.35;;;;;;;25.21;35.50;101411.06;5009973;28;20046;-81
2022/06/21 10:08:06;;;;;;;5.55;2.33;;;;;;;24.81;34.21;101424.41;5028287;28;20026;-81
2022/06/21 10:10:49;;;;;;;4.72;2.60;;;;;;;24.88;34.62;101413.59;5016348;28;20026;-81
2022/06/21 10:13:52;;;;;;;7.55;3.05;;;;;;;24.92;36.08;101415.72;5001121;28;20501;-80
2022/06/21 10:16:57;;;;;;;8.52;2.92;;;;;;;24.85;35.98;101412.13;4998757;28;20524;-80
2022/06/21 10:19:43;;;;;;;6.53;2.92;;;;;;;24.73;36.04;101419.13;4982402;28;20527;-80
2022/06/21 10:22:15;;;;;;;6.70;3.00;;;;;;;24.37;35.96;101423.63;5018367;28;20021;-81
2022/06/21 10:25:01;;;;;;;11.38;3.35;;;;;;;24.45;36.55;101429.94;5018376;28;20062;-81
2022/06/21 10:27:45;;;;;;;8.80;2.97;;;;;;;24.41;35.25;101421.34;5035845;28;20083;-81
2022/06/21 10:30:32;;;;;;;11.68;3.03;;;;;;;24.34;36.70;101420.44;5028713;28;20133;-80
2022/06/21 10:33:06;;;;;;;6.30;2.97;;;;;;;24.29;36.39;101414.78;5021928;28;20084;-81
2022/06/21 10:35:54;;;;;;;8.23;3.25;;;;;;;24.28;36.55;101418.50;5009483;28;20117;-81
2022/06/21 10:38:44;;;;;;;11.10;3.20;;;;;;;24.19;37.66;101423.22;5011933;28;20037;-80
2022/06/21 10:41:31;;;;;;;9.35;3.53;;;;;;;24.19;37.25;101428.66;5015164;28;20026;-80
2022/06/21 10:44:19;;;;;;;5.43;2.63;;;;;;;24.24;37.93;101425.38;5007834;28;20034;-80
2022/06/21 10:46:49;;;;;;;6.63;3.20;;;;;;;24.22;36.80;101422.84;5014571;28;20031;-78
2022/06/21 10:49:24;;;;;;;5.65;3.33;;;;;;;24.10;37.12;101427.09;5014668;28;20289;-78
2022/06/21 10:52:02;;;;;;;11.27;3.50;;;;;;;23.93;37.06;101423.78;5006782;28;20030;-79
2022/06/21 10:54:29;;;;;;;9.27;3.55;;;;;;;23.91;35.95;101420.44;5012202;28;20049;-80
2022/06/21 10:57:33;;;;;;;8.65;3.50;;;;;;;24.14;37.82;101422.97;5000111;28;20041;-79
2022/06/21 11:02:56;;;;;;;6.82;3.30;;;;;;;24.08;37.01;101435.47;5014415;28;20077;-79
2022/06/21 11:05:42;;;;;;;8.25;3.28;;;;;;;24.19;37.30;101432.22;5013673;28;20057;-80
2022/06/21 11:08:20;;;;;;;8.25;3.35;;;;;;;23.94;36.65;101439.03;5017746;28;20044;-79
2022/06/21 11:11:26;;;;;;;7.10;3.47;;;;;;;24.05;36.16;101433.13;5021926;28;20046;-79
2022/06/21 11:14:13;;;;;;;8.38;3.20;;;;;;;23.91;37.14;101429.41;4953143;28;20459;-79
2022/06/21 11:16:50;;;;;;;7.45;3.28;;;;;;;23.83;36.62;101419.53;5010791;28;20088;-80
2022/06/21 11:19:21;;;;;;;9.55;3.72;;;;;;;23.83;36.40;101429.50;5017238;28;20073;-79
2022/06/21 11:22:02;;;;;;;10.10;3.70;;;;;;;23.83;37.17;101421.38;5017965;28;20061;-80
2022/06/21 11:24:46;;;;;;;14.05;3.50;;;;;;;23.87;38.10;101422.69;5015746;28;20435;-80
2022/06/21 11:27:22;;;;;;;11.73;3.67;;;;;;;23.65;38.20;101419.91;5019912;28;20069;-80
2022/06/21 11:30:01;;;;;;;8.05;3.63;;;;;;;23.69;38.67;101423.06;5002313;28;20034;-80
2022/06/21 11:32:32;;;;;;;9.73;3.70;;;;;;;23.54;37.78;101416.84;5021409;28;20141;-79
2022/06/21 11:35:35;;;;;;;8.38;3.60;;;;;;;23.74;38.89;101417.91;5022126;28;20064;-79
2022/06/21 11:38:32;;;;;;;10.23;3.17;;;;;;;23.71;38.26;101414.75;5010316;28;20026;-80
2022/06/21 11:41:05;;;;;;;5.72;3.20;;;;;;;23.67;38.07;101410.75;5019037;28;20034;-79
2022/06/21 11:43:45;;;;;;;7.45;3.30;;;;;;;23.58;37.38;101400.00;5009475;28;20160;-80
2022/06/21 11:46:19;;;;;;;12.15;3.30;;;;;;;23.51;37.92;101406.38;4993850;28;20048;-80
2022/06/21 11:49:40;;;;;;;9.85;3.75;;;;;;;23.64;37.95;101409.25;5014028;28;20034;-80
2022/06/21 11:52:20;;;;;;;7.05;3.08;;;;;;;23.67;37.47;101406.16;4973390;28;20071;-80
2022/06/21 11:55:22;;;;;;;17.35;3.78;;;;;;;23.74;37.55;101400.81;5006249;28;20413;-79
2022/06/21 11:58:15;;;;;;;10.23;3.97;;;;;;;23.87;37.42;101392.84;5016267;28;20537;-79
2022/06/21 12:00:51;;;;;;;11.25;3.60;;;;;;;23.77;36.86;101405.84;5004902;28;20395;-80
2022/06/21 12:03:34;;;;;;;9.07;3.38;;;;;;;23.85;35.80;101403.06;5029607;28;20022;-79
2022/06/21 12:06:11;;;;;;;5.25;3.00;;;;;;;23.85;35.79;101394.94;5014696;28;20073;-80
2022/06/21 12:08:47;;;;;;;6.45;3.60;;;;;;;23.95;36.05;101390.03;5011796;28;20125;-79
2022/06/21 12:11:21;;;;;;;9.07;3.00;;;;;;;24.10;36.77;101394.53;5013548;28;20550;-80
2022/06/21 12:13:59;;;;;;;6.22;3.38;;;;;;;23.92;34.40;101387.69;5014683;28;20056;-78
2022/06/21 12:16:30;;;;;;;6.72;3.33;;;;;;;24.00;35.44;101389.44;5000583;28;20038;-80